Pagina principală
METAR-TAF:

METAR-TAF

Aeroporturi :

Thomas County Airport

Thedford, Nebraska, Statele Unite ale Americii

Latitudine: 41-57-43N, longitudine: 100-34-08W, elevație: 892 m

Observații meteo curente

Raportul a fost făcut în urmă cu 17 de minute, la 01:15 UTC
Vânt 4 kt de la Vest/Nord-vest
Temperatură 13°C
Umiditate 72%
Presiune 1012 hPa
Vizibilitate: 16.1 km
Nori fragmentați la o înălțime de 3300 picior
Nori fragmentați la o înălțime de 4400 picior
Total acoperit la o înălțime de 6000 picior

METAR: KTIF 220115Z AUTO 30004KT 10SM BKN033 BKN044 OVC060 13/08 A2989 RMK AO2 T01300075

Ora: 20:32 (01:32 UTC)


TAF: lipsă

Observații și prognoze meteo pentru peste 4.000 de aeroporturi (rapoarte METAR și TAF).

Stațiile disponibile sunt reprezentate pe hartă prin puncte galbene și roșii.

Țineți indicatorul mouse-ului pe punctul dorit pentru a vedea denumirea stației.

Apoi, faceți clic pentru a vedea observațiile și prognozele meteorologice.

Pentru a schimba harta: Pentru mărire, faceți clic pe butoanele verzi cu cruce neagră; pentru micșorare, pe butonul verde cu o liniuță; pentru hărți învecinate, pe săgețile verzi.


METAR-TAF: